Pagina principale
METAR-TAF:

METAR-TAF

Aeroporti :

Aeroporto di Nizza Costa Azzurra

Nizza, Francia

latitudine: 43-39N, longitudine: 007-12E, altezza: 4 m

Osservazione

Il bollettino è stato emesso 14 minuti fa, alle 14:30 UTC
Vento 15 kt da est
Temperature 17°C
Umidità 29%
Pressione 1016 hPa
Visibilità 10 km o più
Poco nuvoloso ad un'altezza di 3300 ft

METAR: LFMN 261430Z 09015KT 9999 FEW033 17/M01 Q1016 NOSIG

Ora: 15:44 (14:44 UTC)

Previsione

Il bollettino è stato emesso 44 minuti fa, alle 14:00 UTC
Previsione valida dal 26 alle 15 UTC al 27 alle 21 UTC
Vento 8 kt da est
Visibilità 10 km o più
Evoluzione graduale
dal 26 alle 17 UTC al 26 alle 19 UTC
Vento 10 kt da nord/nord-ovest
Evoluzione graduale
dal 27 alle 10 UTC al 27 alle 12 UTC
Vento 10 kt da sud/sud-est
Evoluzione graduale
dal 27 alle 17 UTC al 27 alle 19 UTC
Vento 8 kt da nord/nord-ovest

TAF: LFMN 261400Z 2615/2721 08008KT 9999 NSC BECMG 2617/2619 34010KT BECMG 2710/2712 16010KT BECMG 2717/2719 34008KT

Osservazioni e previsioni meteorologiche di più di 4000 aeroporti (messaggi METAR e TAF).

Le stazioni disponibili sono rappresentate dai dischi gialli e rossi sulla carta.

Puntare il mouse per vedere il nome della stazione.

Clicca sopra per visualizzare le osservazioni e previsioni meteorologiche.

Per cambiare la mappa : fare clic sui pulsanti verdi con una croce nera per ingrandire, il pulsante verde con un trattino per diminuire, o sulla freccia verde per le mappe adiacenti.


METAR-TAF: